Fremont, MI (49412)

5:46 PM EDT on June 24, 2017 (GMT -0400)
Fremont | | Change Station
Active Advisory: Flood Advisory Active Notice: Flood Advisory

Elev 817 ft 43.47 °N, 85.95 °W | Updated 18 seconds ago

Scattered Clouds
Scattered Clouds
70.1 °F
Feels Like 77 °F
N
10.0
Wind Variable Wind from West

Today
High -- | Low -- °F
--% Chance of Precip.
Yesterday
High -- | Low -- °F
Precip. -- in
Pressure 29.94 in
Visibility 10.0 miles
Clouds Scattered Clouds 5000 ft
Scattered Clouds 6500 ft
Heat Index 77 °F
Dew Point 52 °F
Humidity 53%
Rainfall 0.00 in
Snow Depth Not available.
6:03 AM 9:28 PM
New Moon, 1% visible
METAR KFFX 242132Z AUTO 29016G23KT 10SM SCT050 SCT065 20/06 A2994 RMK AO2 T02040061
Pressure 29.94 in
Visibility 10.0 miles
Clouds Scattered Clouds 5000 ft
Scattered Clouds 6500 ft
Heat Index 77 °F
Dew Point 52 °F
Humidity 53%
Rainfall 0.00 in
Snow Depth Not available.
6:03 AM 9:28 PM
New Moon, 1% visible
METAR KFFX 242132Z AUTO 29016G23KT 10SM SCT050 SCT065 20/06 A2994 RMK AO2 T02040061

Get Your Daily Forecast Email!

Thanks for signing up!

Be on the lookout for a verification email in your inbox.

You'll start receiving severe weather alerts in your inbox..

×

10-Day Weather Forecast

Almanac

Astronomy

Jun. 24, 2017 Rise Set
Actual Time
Civil Twilight
Nautical Twilight
Astronomical Twilight
Moon
Length of Visible Light
Length of Day
Tomorrow will be .
, % of the Moon is Illuminated

Today's Extremes

State Highs State Lows

Community

WunderPhotos

Category 6

Welcome to Category 6. This is the collective home for Weather Underground's featured writeups by Dr. Jeff Masters (right), Bob Henson (left), Chris Burt, and other regular contributors.

Nearby

Air Quality

  Air Quality AQ Index Pollutant
Not available.

Snow Depth

Station Depth Elevation

Earthquake Activity

City Distance Mag. Time & Date
Minimum magnitude displayed is 2.5.

Coastal Water Temperatures

Place Temperature

Stations

Nearby Weather Stations

Station Location Temp. Windchill Dew Point Humidity Wind Precip. Elev Updated Type
                   

Watches & Warnings

Flood Advisory
Issued: 10:46 AM EDT Jun. 24, 2017 – National Weather Service

The National Weather Service in Grand Rapids has issued a
* flood advisory for
the Muskegon river near Croton.
* Until Sunday evening.
* At 09 am Saturday the stage was 8.6 feet.
* Bankfull stage is 8.0 feet.
* Flood stage is 9.0 feet.
* Forecast, the river crested overnight and is beginning to fall.
* Impact, at 9.0 feet... expect minor flooding of cottages and homes
downstream of Newaygo on Riverview drive in Bridgeton township and
Pepperidge in Ashland township.


Lat... Lon 4335 8604 4345 8582 4346 8570 4342 8562
      4338 8578 4328 8604